Time;durP1;ratioP1;P1;durP2;ratioP2;P2;SDS_P1;SDS_P2;PMS_P1;PMS_P2;Temp;Humidity;BMP_temperature;BMP_pressure;BME280_temperature;BME280_humidity;BME280_pressure;Samples;Min_cycle;Max_cycle;Signal;HPM_P1;HPM_P2
2024/01/20 00:00:34;;;;;;;6.28;3.15;;;;;;;;;;5040293;28;20025;-78
2024/01/20 00:03:01;;;;;;;7.38;3.75;;;;;;;;;;5047291;28;20026;-80
2024/01/20 00:05:27;;;;;;;6.53;3.42;;;;;;;;;;5055222;28;20029;-79
2024/01/20 00:07:53;;;;;;;4.93;3.22;;;;;;;;;;5057381;28;20025;-79
2024/01/20 00:10:19;;;;;;;5.53;3.35;;;;;;;;;;5041699;28;20018;-79
2024/01/20 00:12:46;;;;;;;6.20;3.15;;;;;;;;;;5049459;28;20124;-80
2024/01/20 00:15:12;;;;;;;6.63;3.63;;;;;;;;;;5049630;28;20160;-78
2024/01/20 00:17:39;;;;;;;7.07;3.58;;;;;;;;;;5045768;28;20029;-81
2024/01/20 00:20:10;;;;;;;5.55;3.28;;;;;;;;;;5056324;28;20043;-79
2024/01/20 00:22:36;;;;;;;5.43;3.05;;;;;;;;;;5022470;28;20107;-78
2024/01/20 00:25:03;;;;;;;5.80;3.00;;;;;;;;;;5061131;28;20025;-79
2024/01/20 00:27:29;;;;;;;5.32;2.90;;;;;;;;;;5061790;28;20029;-80
2024/01/20 00:29:55;;;;;;;3.72;2.25;;;;;;;;;;5046585;28;20030;-80
2024/01/20 00:32:22;;;;;;;5.35;2.95;;;;;;;;;;5045391;28;20332;-78
2024/01/20 00:34:48;;;;;;;4.75;2.97;;;;;;;;;;5039230;28;20112;-78
2024/01/20 00:37:14;;;;;;;5.90;2.65;;;;;;;;;;5039742;28;20018;-79
2024/01/20 00:39:40;;;;;;;4.07;2.50;;;;;;;;;;5043322;28;20399;-79
2024/01/20 00:42:06;;;;;;;5.38;2.90;;;;;;;;;;5053607;28;20025;-79
2024/01/20 00:44:32;;;;;;;5.82;3.10;;;;;;;;;;5050677;28;20409;-78
2024/01/20 00:46:58;;;;;;;6.50;3.00;;;;;;;;;;5053875;28;20034;-77
2024/01/20 00:49:25;;;;;;;4.70;2.63;;;;;;;;;;5037913;28;20029;-78
2024/01/20 00:51:51;;;;;;;5.72;2.90;;;;;;;;;;5051067;28;20471;-79
2024/01/20 00:54:17;;;;;;;5.65;2.88;;;;;;;;;;5047961;28;20063;-79
2024/01/20 00:56:43;;;;;;;4.85;3.08;;;;;;;;;;5056161;28;20080;-78
2024/01/20 00:59:09;;;;;;;6.25;2.88;;;;;;;;;;5061237;28;20119;-78
2024/01/20 01:01:35;;;;;;;6.18;2.40;;;;;;;;;;5065220;28;20032;-78
2024/01/20 01:04:02;;;;;;;4.95;2.65;;;;;;;;;;5051264;28;20037;-79
2024/01/20 01:06:28;;;;;;;4.75;2.42;;;;;;;;;;5048995;28;20509;-80
2024/01/20 01:08:54;;;;;;;6.22;2.50;;;;;;;;;;5042609;28;20033;-78
2024/01/20 01:11:20;;;;;;;3.35;2.20;;;;;;;;;;5043996;28;20094;-79
2024/01/20 01:13:47;;;;;;;4.38;2.70;;;;;;;;;;5044363;28;20037;-79
2024/01/20 01:16:13;;;;;;;5.63;2.60;;;;;;;;;;5044453;28;20129;-79
2024/01/20 01:18:41;;;;;;;4.50;2.55;;;;;;;;;;5058562;28;20057;-80
2024/01/20 01:21:07;;;;;;;4.35;2.47;;;;;;;;;;5050492;28;20104;-78
2024/01/20 01:23:33;;;;;;;4.10;1.98;;;;;;;;;;5047966;28;20381;-78
2024/01/20 01:25:59;;;;;;;4.13;2.35;;;;;;;;;;5045627;28;20021;-80
2024/01/20 01:28:26;;;;;;;4.18;2.58;;;;;;;;;;5052619;28;20130;-78
2024/01/20 01:30:52;;;;;;;2.45;1.55;;;;;;;;;;5045007;28;20088;-78
2024/01/20 01:33:18;;;;;;;3.83;2.03;;;;;;;;;;5055380;28;20029;-79
2024/01/20 01:35:45;;;;;;;2.97;1.88;;;;;;;;;;5050878;28;20066;-78
2024/01/20 01:38:11;;;;;;;3.97;2.25;;;;;;;;;;5044541;28;20476;-78
2024/01/20 01:40:37;;;;;;;2.60;1.73;;;;;;;;;;5044062;28;20037;-78
2024/01/20 01:43:03;;;;;;;4.68;1.98;;;;;;;;;;5062921;28;20032;-79
2024/01/20 01:45:29;;;;;;;3.70;2.03;;;;;;;;;;5050073;28;20057;-79
2024/01/20 01:47:56;;;;;;;3.72;1.70;;;;;;;;;;5049295;28;20088;-78
2024/01/20 01:50:22;;;;;;;2.67;1.63;;;;;;;;;;5055771;28;20040;-79
2024/01/20 01:52:50;;;;;;;2.58;1.70;;;;;;;;;;5063289;28;20025;-77
2024/01/20 01:55:17;;;;;;;3.80;2.28;;;;;;;;;;5047863;28;20028;-77
2024/01/20 01:57:43;;;;;;;2.95;1.70;;;;;;;;;;5059874;28;20089;-78
2024/01/20 02:00:10;;;;;;;2.92;1.95;;;;;;;;;;5058292;28;20026;-78
2024/01/20 02:02:39;;;;;;;2.65;1.33;;;;;;;;;;5064658;28;20044;-78
2024/01/20 02:05:05;;;;;;;3.53;2.17;;;;;;;;;;5069189;28;20024;-78
2024/01/20 02:07:32;;;;;;;2.47;1.42;;;;;;;;;;5069594;28;20025;-78
2024/01/20 02:09:58;;;;;;;2.28;1.58;;;;;;;;;;5057677;28;20033;-79
2024/01/20 02:12:24;;;;;;;1.73;1.17;;;;;;;;;;5059664;28;20073;-79
2024/01/20 02:14:51;;;;;;;2.67;1.30;;;;;;;;;;5049480;28;20037;-80
2024/01/20 02:17:17;;;;;;;3.05;1.85;;;;;;;;;;5059902;28;20047;-77
2024/01/20 02:19:45;;;;;;;3.05;1.60;;;;;;;;;;5075013;28;20021;-78
2024/01/20 02:22:11;;;;;;;3.00;1.60;;;;;;;;;;5064560;28;20030;-77
2024/01/20 02:24:39;;;;;;;2.60;1.60;;;;;;;;;;5065816;28;20025;-78
2024/01/20 02:27:05;;;;;;;2.17;1.23;;;;;;;;;;5057186;28;20033;-79
2024/01/20 02:29:31;;;;;;;3.33;1.38;;;;;;;;;;5073304;28;20025;-79
2024/01/20 02:31:57;;;;;;;2.75;1.10;;;;;;;;;;5069084;28;20027;-79
2024/01/20 02:34:23;;;;;;;1.60;0.90;;;;;;;;;;5063141;28;20031;-80
2024/01/20 02:36:51;;;;;;;1.98;1.02;;;;;;;;;;5066153;28;20099;-78
2024/01/20 02:39:17;;;;;;;2.50;1.20;;;;;;;;;;5054553;28;20263;-79
2024/01/20 02:41:43;;;;;;;3.17;1.67;;;;;;;;;;5054390;28;20052;-81
2024/01/20 02:44:09;;;;;;;2.40;1.33;;;;;;;;;;5063561;28;20040;-78
2024/01/20 02:46:35;;;;;;;2.88;1.17;;;;;;;;;;5044297;28;20030;-78
2024/01/20 02:49:01;;;;;;;2.65;1.50;;;;;;;;;;5047104;28;20503;-79
2024/01/20 02:51:28;;;;;;;2.25;1.35;;;;;;;;;;5047483;28;20072;-81
2024/01/20 02:53:54;;;;;;;2.35;1.30;;;;;;;;;;5052285;28;20055;-79
2024/01/20 02:56:22;;;;;;;1.77;1.27;;;;;;;;;;5052904;28;20022;-79
2024/01/20 02:58:51;;;;;;;0.95;0.88;;;;;;;;;;5042284;28;20112;-78
2024/01/20 03:01:17;;;;;;;2.40;1.38;;;;;;;;;;5053444;28;20302;-78
2024/01/20 03:03:45;;;;;;;1.40;1.30;;;;;;;;;;5049678;28;20045;-78
2024/01/20 03:06:13;;;;;;;1.80;1.20;;;;;;;;;;5046411;28;20033;-81
2024/01/20 03:08:39;;;;;;;1.83;1.15;;;;;;;;;;5038394;28;20036;-80
2024/01/20 03:11:05;;;;;;;2.25;1.05;;;;;;;;;;5051529;28;20064;-79
2024/01/20 03:13:32;;;;;;;3.78;1.33;;;;;;;;;;5059401;28;20032;-79
2024/01/20 03:15:58;;;;;;;1.58;0.70;;;;;;;;;;5049741;28;20699;-79
2024/01/20 03:18:24;;;;;;;0.93;0.80;;;;;;;;;;5049400;28;20025;-79
2024/01/20 03:20:50;;;;;;;1.25;1.02;;;;;;;;;;5056269;28;20546;-78
2024/01/20 03:23:16;;;;;;;2.28;1.00;;;;;;;;;;5054373;28;20101;-79
2024/01/20 03:25:42;;;;;;;2.60;1.15;;;;;;;;;;5043078;28;20029;-79
2024/01/20 03:28:08;;;;;;;2.15;1.30;;;;;;;;;;5051072;28;20447;-80
2024/01/20 03:30:34;;;;;;;2.53;1.45;;;;;;;;;;5050699;28;20878;-79
2024/01/20 03:33:01;;;;;;;2.33;1.20;;;;;;;;;;5049333;28;20047;-78
2024/01/20 03:35:27;;;;;;;1.65;0.98;;;;;;;;;;5059755;28;20016;-78
2024/01/20 03:37:53;;;;;;;2.05;1.20;;;;;;;;;;5046310;28;20120;-79
2024/01/20 03:40:19;;;;;;;2.13;1.05;;;;;;;;;;5045485;28;20029;-79
2024/01/20 03:42:45;;;;;;;1.23;0.93;;;;;;;;;;5049059;28;20075;-79
2024/01/20 03:45:11;;;;;;;2.58;1.02;;;;;;;;;;5061265;28;20471;-79
2024/01/20 03:47:37;;;;;;;1.85;0.98;;;;;;;;;;5047916;28;20029;-79
2024/01/20 03:50:04;;;;;;;1.58;1.00;;;;;;;;;;5047472;28;20025;-80
2024/01/20 03:52:30;;;;;;;2.28;1.15;;;;;;;;;;5046043;28;20037;-79
2024/01/20 03:54:56;;;;;;;2.00;1.00;;;;;;;;;;5049467;28;20025;-79
2024/01/20 03:57:23;;;;;;;1.13;1.00;;;;;;;;;;5050993;28;20432;-79
2024/01/20 03:59:49;;;;;;;2.78;1.08;;;;;;;;;;5040661;28;20098;-79
2024/01/20 04:02:15;;;;;;;2.72;1.02;;;;;;;;;;5042209;28;20039;-79
2024/01/20 04:04:41;;;;;;;1.58;0.90;;;;;;;;;;5048677;28;20490;-78
2024/01/20 04:07:07;;;;;;;1.83;1.17;;;;;;;;;;5050542;28;20101;-79
2024/01/20 04:09:33;;;;;;;1.23;0.82;;;;;;;;;;5038880;28;20400;-79
2024/01/20 04:12:00;;;;;;;1.58;1.00;;;;;;;;;;5047652;28;20025;-78
2024/01/20 04:14:26;;;;;;;1.08;0.80;;;;;;;;;;5048804;28;20035;-78
2024/01/20 04:16:52;;;;;;;2.05;0.85;;;;;;;;;;5051868;28;20045;-79
2024/01/20 04:19:18;;;;;;;1.15;0.70;;;;;;;;;;5037983;28;20036;-78
2024/01/20 04:21:44;;;;;;;1.13;0.82;;;;;;;;;;5055780;28;20468;-78
2024/01/20 04:24:10;;;;;;;1.60;0.68;;;;;;;;;;5046625;28;20055;-79
2024/01/20 04:26:36;;;;;;;1.52;0.70;;;;;;;;;;5046627;28;20099;-79
2024/01/20 04:29:03;;;;;;;2.08;0.80;;;;;;;;;;5046310;28;20083;-78
2024/01/20 04:31:29;;;;;;;1.02;0.68;;;;;;;;;;5046295;28;20053;-79
2024/01/20 04:33:55;;;;;;;1.00;0.77;;;;;;;;;;5058949;28;20043;-80
2024/01/20 04:36:22;;;;;;;0.88;0.60;;;;;;;;;;5063073;28;20053;-78
2024/01/20 04:38:48;;;;;;;1.08;0.73;;;;;;;;;;5057413;28;20034;-79
2024/01/20 04:41:14;;;;;;;1.02;0.70;;;;;;;;;;5055446;28;20010;-79
2024/01/20 04:43:40;;;;;;;0.70;0.70;;;;;;;;;;5063944;28;20081;-80
2024/01/20 04:46:06;;;;;;;0.88;0.70;;;;;;;;;;5067172;28;20104;-83
2024/01/20 04:48:33;;;;;;;0.80;0.60;;;;;;;;;;5066748;28;20033;-80
2024/01/20 04:50:59;;;;;;;0.57;0.50;;;;;;;;;;5057583;28;20056;-78
2024/01/20 04:53:25;;;;;;;0.63;0.57;;;;;;;;;;5051346;28;20029;-78
2024/01/20 04:55:51;;;;;;;1.48;0.85;;;;;;;;;;5053070;28;20029;-79
2024/01/20 04:58:17;;;;;;;0.68;0.65;;;;;;;;;;5067530;28;20066;-79
2024/01/20 05:00:44;;;;;;;1.55;0.80;;;;;;;;;;5073008;28;20017;-78
2024/01/20 05:03:11;;;;;;;1.08;0.70;;;;;;;;;;5055822;28;20100;-79
2024/01/20 05:05:37;;;;;;;0.82;0.50;;;;;;;;;;5061547;28;20071;-79
2024/01/20 05:08:03;;;;;;;1.13;0.80;;;;;;;;;;5042112;28;20029;-79
2024/01/20 05:10:29;;;;;;;1.23;0.77;;;;;;;;;;5041280;28;20033;-78
2024/01/20 05:12:55;;;;;;;1.42;0.82;;;;;;;;;;5052387;28;20029;-79
2024/01/20 05:15:22;;;;;;;1.80;0.60;;;;;;;;;;5053035;28;20028;-79
2024/01/20 05:17:48;;;;;;;1.13;0.70;;;;;;;;;;5061776;28;20052;-79
2024/01/20 05:20:15;;;;;;;1.75;0.80;;;;;;;;;;5063024;28;20193;-79
2024/01/20 05:22:42;;;;;;;1.48;0.85;;;;;;;;;;5059765;28;20033;-80
2024/01/20 05:25:08;;;;;;;0.57;0.52;;;;;;;;;;5030387;28;20480;-80
2024/01/20 05:27:34;;;;;;;1.20;0.50;;;;;;;;;;5046178;28;20036;-80
2024/01/20 05:30:00;;;;;;;1.30;0.90;;;;;;;;;;5041816;28;20041;-80
2024/01/20 05:32:26;;;;;;;1.83;0.52;;;;;;;;;;5043743;28;20389;-82
2024/01/20 05:34:52;;;;;;;1.25;0.88;;;;;;;;;;5056999;28;20033;-79
2024/01/20 05:37:18;;;;;;;0.65;0.55;;;;;;;;;;5047901;28;20032;-79
2024/01/20 05:39:44;;;;;;;1.33;0.70;;;;;;;;;;5058421;28;20033;-79
2024/01/20 05:42:11;;;;;;;0.75;0.63;;;;;;;;;;5043809;28;20302;-79
2024/01/20 05:44:37;;;;;;;1.42;0.88;;;;;;;;;;5053515;28;20037;-79
2024/01/20 05:47:03;;;;;;;0.50;0.47;;;;;;;;;;5055877;28;20098;-79
2024/01/20 05:49:29;;;;;;;0.88;0.60;;;;;;;;;;5057155;28;20116;-79
2024/01/20 05:51:55;;;;;;;0.40;0.40;;;;;;;;;;5053680;28;20029;-80
2024/01/20 05:54:21;;;;;;;1.33;0.60;;;;;;;;;;5064341;28;20041;-79
2024/01/20 05:56:47;;;;;;;0.95;0.60;;;;;;;;;;5057672;28;20041;-79
2024/01/20 05:59:13;;;;;;;1.05;0.60;;;;;;;;;;5073788;28;20052;-79
2024/01/20 06:01:39;;;;;;;1.45;0.60;;;;;;;;;;5047142;28;20124;-80
2024/01/20 06:04:06;;;;;;;0.55;0.55;;;;;;;;;;5044646;28;20068;-76
2024/01/20 06:06:32;;;;;;;0.52;0.43;;;;;;;;;;5039307;28;20041;-79
2024/01/20 06:08:58;;;;;;;1.20;0.50;;;;;;;;;;5033975;28;20032;-76
2024/01/20 06:11:25;;;;;;;2.78;0.63;;;;;;;;;;5042320;28;20108;-77
2024/01/20 06:13:51;;;;;;;1.38;0.47;;;;;;;;;;5048990;28;20108;-77
2024/01/20 06:16:18;;;;;;;1.10;0.70;;;;;;;;;;5045275;28;20018;-76
2024/01/20 06:18:44;;;;;;;0.55;0.55;;;;;;;;;;5050299;28;20112;-77
2024/01/20 06:21:10;;;;;;;0.80;0.80;;;;;;;;;;5038170;28;20026;-77
2024/01/20 06:23:37;;;;;;;0.90;0.52;;;;;;;;;;5037448;28;20428;-76
2024/01/20 06:26:03;;;;;;;0.70;0.43;;;;;;;;;;5033102;28;20040;-75
2024/01/20 06:28:29;;;;;;;1.00;0.65;;;;;;;;;;5030093;28;20128;-75
2024/01/20 06:30:56;;;;;;;1.02;0.82;;;;;;;;;;5051004;28;20021;-76
2024/01/20 06:33:22;;;;;;;1.35;0.40;;;;;;;;;;5058896;22;20052;-77
2024/01/20 06:35:50;;;;;;;0.75;0.70;;;;;;;;;;5049185;28;20064;-76
2024/01/20 06:38:16;;;;;;;2.40;0.95;;;;;;;;;;5043486;28;20013;-76
2024/01/20 06:40:42;;;;;;;1.23;1.10;;;;;;;;;;5042382;28;20029;-77
2024/01/20 06:43:09;;;;;;;2.20;1.27;;;;;;;;;;5031433;28;20010;-77
2024/01/20 06:45:35;;;;;;;2.50;1.30;;;;;;;;;;5024865;28;20021;-75
2024/01/20 06:48:01;;;;;;;2.58;1.10;;;;;;;;;;5033345;28;20111;-75
2024/01/20 06:50:28;;;;;;;2.10;0.90;;;;;;;;;;5035447;28;20022;-76
2024/01/20 06:52:54;;;;;;;2.47;0.93;;;;;;;;;;5035104;28;20416;-76
2024/01/20 06:55:20;;;;;;;2.60;0.93;;;;;;;;;;5019017;28;20026;-73
2024/01/20 06:57:46;;;;;;;1.13;1.02;;;;;;;;;;5019844;28;20313;-76
2024/01/20 07:00:12;;;;;;;1.23;0.60;;;;;;;;;;5031873;28;20034;-74
2024/01/20 07:02:38;;;;;;;1.30;1.05;;;;;;;;;;5022630;28;20038;-74
2024/01/20 07:05:05;;;;;;;1.40;0.80;;;;;;;;;;5035666;28;20075;-76
2024/01/20 07:07:31;;;;;;;1.73;1.00;;;;;;;;;;5030750;28;20066;-75
2024/01/20 07:09:57;;;;;;;1.90;1.10;;;;;;;;;;5034783;28;20059;-77
2024/01/20 07:12:24;;;;;;;2.55;1.13;;;;;;;;;;5029250;28;20439;-74
2024/01/20 07:14:50;;;;;;;1.95;1.08;;;;;;;;;;5035072;28;20056;-75
2024/01/20 07:17:16;;;;;;;2.40;1.20;;;;;;;;;;5031977;28;20042;-75
2024/01/20 07:19:43;;;;;;;3.42;1.23;;;;;;;;;;5028973;28;20084;-75
2024/01/20 07:22:09;;;;;;;2.63;1.02;;;;;;;;;;5040931;28;20073;-76
2024/01/20 07:24:35;;;;;;;1.27;1.10;;;;;;;;;;5052459;28;20039;-76
2024/01/20 07:27:01;;;;;;;1.00;0.75;;;;;;;;;;5036582;28;20032;-76
2024/01/20 07:29:27;;;;;;;1.75;1.23;;;;;;;;;;5040122;28;20033;-76
2024/01/20 07:31:54;;;;;;;2.08;1.05;;;;;;;;;;5035626;28;20030;-77
2024/01/20 07:34:20;;;;;;;2.65;1.17;;;;;;;;;;5049600;28;20025;-78
2024/01/20 07:36:46;;;;;;;1.33;0.90;;;;;;;;;;5055499;28;20084;-78
2024/01/20 07:39:13;;;;;;;2.95;1.00;;;;;;;;;;5054853;28;20026;-77
2024/01/20 07:41:39;;;;;;;1.38;0.90;;;;;;;;;;5046904;28;20036;-77
2024/01/20 07:44:05;;;;;;;1.70;0.98;;;;;;;;;;5037714;28;20049;-78
2024/01/20 07:46:32;;;;;;;1.30;0.80;;;;;;;;;;5037067;28;20041;-78
2024/01/20 07:48:58;;;;;;;1.40;0.93;;;;;;;;;;5037236;28;20046;-77
2024/01/20 07:51:25;;;;;;;0.82;0.57;;;;;;;;;;5049377;28;20149;-75
2024/01/20 07:53:51;;;;;;;1.92;1.20;;;;;;;;;;5044701;28;20042;-76
2024/01/20 07:56:17;;;;;;;2.42;1.25;;;;;;;;;;5038720;28;20021;-76
2024/01/20 07:58:43;;;;;;;2.67;1.20;;;;;;;;;;5039470;28;20022;-77
2024/01/20 08:01:09;;;;;;;1.85;1.02;;;;;;;;;;5034954;28;20033;-78
2024/01/20 08:03:35;;;;;;;1.27;0.70;;;;;;;;;;5036551;28;20052;-76
2024/01/20 08:06:02;;;;;;;1.55;1.10;;;;;;;;;;5039838;28;20101;-75
2024/01/20 08:08:28;;;;;;;1.88;1.02;;;;;;;;;;5039184;28;20328;-76
2024/01/20 08:10:54;;;;;;;2.03;1.23;;;;;;;;;;5037852;28;20061;-75
2024/01/20 08:13:21;;;;;;;1.65;1.00;;;;;;;;;;5029841;28;20089;-75
2024/01/20 08:15:47;;;;;;;2.25;0.82;;;;;;;;;;5040225;28;20041;-77
2024/01/20 08:18:13;;;;;;;0.90;0.70;;;;;;;;;;5033237;28;20050;-74
2024/01/20 08:20:39;;;;;;;1.92;1.00;;;;;;;;;;5036439;28;20055;-73
2024/01/20 08:23:05;;;;;;;1.10;0.60;;;;;;;;;;5030635;28;20452;-75
2024/01/20 08:25:31;;;;;;;2.33;1.02;;;;;;;;;;5047471;28;20100;-75
2024/01/20 08:27:57;;;;;;;0.98;0.63;;;;;;;;;;5044754;28;20099;-74
2024/01/20 08:30:24;;;;;;;1.77;0.90;;;;;;;;;;5041973;28;20025;-76
2024/01/20 08:32:50;;;;;;;1.63;0.50;;;;;;;;;;5036629;28;20041;-75
2024/01/20 08:35:16;;;;;;;1.40;0.88;;;;;;;;;;5026639;28;20041;-76
2024/01/20 08:37:42;;;;;;;2.17;0.90;;;;;;;;;;5036339;28;20101;-75
2024/01/20 08:40:08;;;;;;;2.35;0.90;;;;;;;;;;5037540;28;20040;-77
2024/01/20 08:42:34;;;;;;;4.40;2.50;;;;;;;;;;5052441;28;20029;-77
2024/01/20 08:45:00;;;;;;;1.40;0.75;;;;;;;;;;5050417;28;20028;-76
2024/01/20 08:47:27;;;;;;;1.40;0.77;;;;;;;;;;5040131;28;20039;-76
2024/01/20 08:49:53;;;;;;;3.10;0.80;;;;;;;;;;5045886;28;20030;-75
2024/01/20 08:52:19;;;;;;;1.55;0.75;;;;;;;;;;5048956;28;20017;-76
2024/01/20 08:54:46;;;;;;;1.60;1.00;;;;;;;;;;5042557;28;20076;-78
2024/01/20 08:57:13;;;;;;;0.85;0.60;;;;;;;;;;5053591;28;20018;-78
2024/01/20 08:59:39;;;;;;;1.48;0.88;;;;;;;;;;5051764;28;20101;-75
2024/01/20 09:02:06;;;;;;;0.80;0.57;;;;;;;;;;5044135;28;20018;-77
2024/01/20 09:04:32;;;;;;;1.20;0.52;;;;;;;;;;5043800;28;20180;-78
2024/01/20 09:06:58;;;;;;;1.58;0.80;;;;;;;;;;5038622;28;20091;-76
2024/01/20 09:09:24;;;;;;;0.80;0.60;;;;;;;;;;5050210;28;20106;-76
2024/01/20 09:11:51;;;;;;;1.45;0.70;;;;;;;;;;5033361;28;20062;-73
2024/01/20 09:14:17;;;;;;;0.73;0.68;;;;;;;;;;5056490;28;20013;-74
2024/01/20 09:16:43;;;;;;;1.13;0.50;;;;;;;;;;5055867;28;20099;-77
2024/01/20 09:19:09;;;;;;;1.00;0.90;;;;;;;;;;5051095;28;20073;-75
2024/01/20 09:21:35;;;;;;;0.95;0.60;;;;;;;;;;5049602;28;20136;-75
2024/01/20 09:24:02;;;;;;;0.88;0.65;;;;;;;;;;5042332;28;20026;-74
2024/01/20 09:26:29;;;;;;;0.57;0.57;;;;;;;;;;5036102;28;20064;-76
2024/01/20 09:28:55;;;;;;;1.60;0.88;;;;;;;;;;5050949;28;20368;-75
2024/01/20 09:31:22;;;;;;;0.73;0.60;;;;;;;;;;5042089;28;20043;-76
2024/01/20 09:33:50;;;;;;;0.98;0.88;;;;;;;;;;5041617;28;20125;-76
2024/01/20 09:36:16;;;;;;;1.70;1.20;;;;;;;;;;5039514;28;20457;-75
2024/01/20 09:38:42;;;;;;;0.95;0.60;;;;;;;;;;5037963;28;20048;-75
2024/01/20 09:41:09;;;;;;;1.00;0.90;;;;;;;;;;5020745;28;20037;-76
2024/01/20 09:43:39;;;;;;;0.80;0.80;;;;;;;;;;5049328;28;20121;-76
2024/01/20 09:46:05;;;;;;;1.27;0.70;;;;;;;;;;5049416;28;20082;-75
2024/01/20 09:48:33;;;;;;;1.65;0.70;;;;;;;;;;5041711;28;20113;-76
2024/01/20 09:50:59;;;;;;;0.73;0.63;;;;;;;;;;5038040;28;20128;-76
2024/01/20 09:53:25;;;;;;;1.13;0.93;;;;;;;;;;5039157;28;20107;-76
2024/01/20 09:55:52;;;;;;;1.65;1.10;;;;;;;;;;5041381;28;20057;-75
2024/01/20 09:58:19;;;;;;;1.50;1.20;;;;;;;;;;5053788;28;20087;-75
2024/01/20 10:00:46;;;;;;;2.35;1.13;;;;;;;;;;5041806;28;20048;-76
2024/01/20 10:03:12;;;;;;;1.30;1.00;;;;;;;;;;5025891;28;20026;-76
2024/01/20 10:05:38;;;;;;;1.77;0.90;;;;;;;;;;5044669;28;20021;-76
2024/01/20 10:08:05;;;;;;;2.20;1.20;;;;;;;;;;5029449;28;20030;-76
2024/01/20 10:10:32;;;;;;;1.10;0.98;;;;;;;;;;5038342;28;20045;-77
2024/01/20 10:13:00;;;;;;;1.38;0.70;;;;;;;;;;5039077;28;20075;-76
2024/01/20 10:15:28;;;;;;;1.70;0.80;;;;;;;;;;5027457;28;20153;-76
2024/01/20 10:17:57;;;;;;;0.75;0.55;;;;;;;;;;5030866;28;20057;-75
2024/01/20 10:20:35;;;;;;;1.42;0.80;;;;;;;;;;5035450;28;20018;-77
2024/01/20 10:23:03;;;;;;;1.30;0.77;;;;;;;;;;5052046;28;20044;-75
2024/01/20 10:25:29;;;;;;;1.30;0.80;;;;;;;;;;5039486;28;20133;-75
2024/01/20 10:27:55;;;;;;;1.60;1.00;;;;;;;;;;5033077;28;20435;-75
2024/01/20 10:30:22;;;;;;;0.80;0.80;;;;;;;;;;5028525;28;20040;-74
2024/01/20 10:32:49;;;;;;;1.17;1.02;;;;;;;;;;5034565;28;20101;-76
2024/01/20 10:35:15;;;;;;;0.90;0.60;;;;;;;;;;5045955;28;20026;-75
2024/01/20 10:37:51;;;;;;;0.77;0.63;;;;;;;;;;5047354;28;20017;-75
2024/01/20 10:40:18;;;;;;;0.90;0.80;;;;;;;;;;5039122;28;20081;-75
2024/01/20 10:42:45;;;;;;;1.05;0.80;;;;;;;;;;5036066;28;20114;-75
2024/01/20 10:45:18;;;;;;;1.52;0.93;;;;;;;;;;5020338;28;20078;-75
2024/01/20 10:47:57;;;;;;;0.93;0.70;;;;;;;;;;5036605;28;20038;-75
2024/01/20 10:50:24;;;;;;;2.03;0.90;;;;;;;;;;5017703;28;20026;-76
2024/01/20 10:52:52;;;;;;;3.22;1.20;;;;;;;;;;5034232;28;20075;-75
2024/01/20 10:55:18;;;;;;;1.45;0.80;;;;;;;;;;5034428;28;20026;-75
2024/01/20 10:57:45;;;;;;;0.73;0.65;;;;;;;;;;5035912;28;20029;-74
2024/01/20 11:00:12;;;;;;;1.30;0.93;;;;;;;;;;5048357;28;20120;-76
2024/01/20 11:02:39;;;;;;;1.35;1.05;;;;;;;;;;5023923;28;20363;-74
2024/01/20 11:05:17;;;;;;;2.78;1.13;;;;;;;;;;5035646;28;20034;-74
2024/01/20 11:07:43;;;;;;;1.67;1.27;;;;;;;;;;5028489;28;20030;-76
2024/01/20 11:10:09;;;;;;;1.17;0.80;;;;;;;;;;5036478;28;20048;-76
2024/01/20 11:12:36;;;;;;;1.20;1.00;;;;;;;;;;5036313;28;20075;-75
2024/01/20 11:15:03;;;;;;;0.95;0.77;;;;;;;;;;5025757;28;20026;-75
2024/01/20 11:17:29;;;;;;;1.98;0.82;;;;;;;;;;5028078;28;20071;-76
2024/01/20 11:19:55;;;;;;;1.88;0.93;;;;;;;;;;5017737;28;20099;-75
2024/01/20 11:22:34;;;;;;;1.35;0.60;;;;;;;;;;5014073;28;20521;-76
2024/01/20 11:25:05;;;;;;;1.30;0.90;;;;;;;;;;5023884;28;20092;-74
2024/01/20 11:27:31;;;;;;;0.95;0.82;;;;;;;;;;5034029;28;20024;-76
2024/01/20 11:30:10;;;;;;;1.67;1.02;;;;;;;;;;5028751;28;20048;-76
2024/01/20 11:32:36;;;;;;;0.75;0.73;;;;;;;;;;5022039;28;20042;-75
2024/01/20 11:35:05;;;;;;;1.38;0.98;;;;;;;;;;5031374;28;20037;-75
2024/01/20 11:37:34;;;;;;;2.28;1.30;;;;;;;;;;5031535;28;20025;-74
2024/01/20 11:40:04;;;;;;;3.42;1.95;;;;;;;;;;5025442;28;20026;-76
2024/01/20 11:42:32;;;;;;;5.45;2.22;;;;;;;;;;5025073;28;20152;-76
2024/01/20 11:44:58;;;;;;;1.65;1.20;;;;;;;;;;5016302;28;20026;-77
2024/01/20 11:47:24;;;;;;;2.85;1.83;;;;;;;;;;5022272;28;20030;-76
2024/01/20 11:49:54;;;;;;;2.10;1.50;;;;;;;;;;5013590;28;20030;-77
2024/01/20 11:52:20;;;;;;;5.90;1.70;;;;;;;;;;5018451;28;20088;-77
2024/01/20 11:54:46;;;;;;;3.03;1.63;;;;;;;;;;5035289;28;20021;-75
2024/01/20 11:57:19;;;;;;;2.78;1.42;;;;;;;;;;5026573;28;20022;-77
2024/01/20 11:59:45;;;;;;;1.02;0.90;;;;;;;;;;5035641;28;20037;-75
2024/01/20 12:02:11;;;;;;;1.70;1.10;;;;;;;;;;5026829;28;20021;-76
2024/01/20 12:04:39;;;;;;;1.40;0.93;;;;;;;;;;5028567;28;20060;-75
2024/01/20 12:07:05;;;;;;;4.80;1.55;;;;;;;;;;5034209;28;20078;-76
2024/01/20 12:09:31;;;;;;;3.75;2.13;;;;;;;;;;5026109;28;20044;-76
2024/01/20 12:11:57;;;;;;;3.65;1.30;;;;;;;;;;5016440;28;20374;-75
2024/01/20 12:14:23;;;;;;;2.13;1.42;;;;;;;;;;5026858;28;20021;-76
2024/01/20 12:16:50;;;;;;;2.58;1.13;;;;;;;;;;5027001;28;20038;-75
2024/01/20 12:19:16;;;;;;;1.13;1.00;;;;;;;;;;5017951;28;20526;-75
2024/01/20 12:21:43;;;;;;;1.95;0.95;;;;;;;;;;5030259;28;20040;-75
2024/01/20 12:24:10;;;;;;;2.17;1.20;;;;;;;;;;5038761;28;20060;-76
2024/01/20 12:26:36;;;;;;;5.97;1.48;;;;;;;;;;5050218;28;20037;-75
2024/01/20 12:29:03;;;;;;;2.38;1.25;;;;;;;;;;5034808;28;20239;-75
2024/01/20 12:31:30;;;;;;;2.72;1.23;;;;;;;;;;5028991;28;20029;-76
2024/01/20 12:33:56;;;;;;;1.05;0.90;;;;;;;;;;5024216;28;20040;-75
2024/01/20 12:36:22;;;;;;;1.65;0.98;;;;;;;;;;5026657;28;20033;-75
2024/01/20 12:38:49;;;;;;;2.00;1.45;;;;;;;;;;5020474;28;20025;-75
2024/01/20 12:41:16;;;;;;;2.55;1.27;;;;;;;;;;5024046;28;20034;-76
2024/01/20 12:43:45;;;;;;;2.05;1.05;;;;;;;;;;5013524;28;20455;-75
2024/01/20 12:46:12;;;;;;;1.08;0.98;;;;;;;;;;5036220;28;20037;-75
2024/01/20 12:48:38;;;;;;;1.70;1.13;;;;;;;;;;5021971;28;20090;-75
2024/01/20 12:51:05;;;;;;;2.53;1.33;;;;;;;;;;5031271;28;20048;-77
2024/01/20 12:53:33;;;;;;;2.28;1.10;;;;;;;;;;5028738;28;20105;-75
2024/01/20 12:55:59;;;;;;;1.95;1.25;;;;;;;;;;5038499;28;20017;-75
2024/01/20 12:58:25;;;;;;;2.40;1.10;;;;;;;;;;5021890;28;20473;-75
2024/01/20 13:00:51;;;;;;;3.15;1.42;;;;;;;;;;5037044;28;20076;-75
2024/01/20 13:03:17;;;;;;;6.57;2.33;;;;;;;;;;5025263;28;20026;-77
2024/01/20 13:05:45;;;;;;;4.22;1.77;;;;;;;;;;5029315;28;20105;-76
2024/01/20 13:08:11;;;;;;;5.00;2.00;;;;;;;;;;5026279;28;20022;-74
2024/01/20 13:10:37;;;;;;;4.18;1.80;;;;;;;;;;5035428;28;20040;-75
2024/01/20 13:13:03;;;;;;;2.35;1.58;;;;;;;;;;5024384;28;20026;-74
2024/01/20 13:15:29;;;;;;;2.97;1.45;;;;;;;;;;5032455;28;20025;-77
2024/01/20 13:17:56;;;;;;;1.60;1.23;;;;;;;;;;5025014;28;20029;-77
2024/01/20 13:20:22;;;;;;;3.50;1.80;;;;;;;;;;5039015;28;20036;-75
2024/01/20 13:22:48;;;;;;;2.85;1.50;;;;;;;;;;5029307;28;20060;-75
2024/01/20 13:25:14;;;;;;;4.15;1.52;;;;;;;;;;5021604;28;20049;-75
2024/01/20 13:27:40;;;;;;;1.35;1.00;;;;;;;;;;5034769;28;20028;-75
2024/01/20 13:30:07;;;;;;;0.90;0.80;;;;;;;;;;5020996;28;20101;-77
2024/01/20 13:32:33;;;;;;;2.85;0.93;;;;;;;;;;5025093;28;20396;-76
2024/01/20 13:34:59;;;;;;;1.15;0.82;;;;;;;;;;5036479;28;20035;-75
2024/01/20 13:37:25;;;;;;;1.77;1.08;;;;;;;;;;5021378;28;20029;-75
2024/01/20 13:39:51;;;;;;;2.55;1.25;;;;;;;;;;5028684;28;20469;-75
2024/01/20 13:42:17;;;;;;;2.42;1.17;;;;;;;;;;5040026;28;20025;-75
2024/01/20 13:44:43;;;;;;;1.38;0.80;;;;;;;;;;5040935;28;20025;-75
2024/01/20 13:47:10;;;;;;;1.08;0.80;;;;;;;;;;5023821;28;20021;-74
2024/01/20 13:49:36;;;;;;;1.13;0.70;;;;;;;;;;5033617;28;20384;-75
2024/01/20 13:52:02;;;;;;;0.77;0.70;;;;;;;;;;5028237;28;20048;-76
2024/01/20 13:54:28;;;;;;;1.75;1.10;;;;;;;;;;5026998;28;20026;-75
2024/01/20 13:56:54;;;;;;;2.53;1.25;;;;;;;;;;5019282;28;20032;-76
2024/01/20 13:59:20;;;;;;;2.22;1.15;;;;;;;;;;5027931;28;20033;-76
2024/01/20 14:01:47;;;;;;;1.38;1.10;;;;;;;;;;5030226;28;20030;-78
2024/01/20 14:04:13;;;;;;;4.22;1.15;;;;;;;;;;5019985;28;20362;-75
2024/01/20 14:06:40;;;;;;;1.63;1.10;;;;;;;;;;5023518;28;20043;-76
2024/01/20 14:09:09;;;;;;;2.53;1.10;;;;;;;;;;5036491;28;20115;-75
2024/01/20 14:11:36;;;;;;;2.08;1.00;;;;;;;;;;5035390;28;20025;-75
2024/01/20 14:14:02;;;;;;;2.15;1.23;;;;;;;;;;5027596;28;20095;-76
2024/01/20 14:16:30;;;;;;;2.53;1.40;;;;;;;;;;5030998;28;20022;-77
2024/01/20 14:18:57;;;;;;;5.55;1.67;;;;;;;;;;5016457;28;20034;-75
2024/01/20 14:21:24;;;;;;;5.53;2.33;;;;;;;;;;5035744;28;20017;-75
2024/01/20 14:23:50;;;;;;;5.60;1.48;;;;;;;;;;5041631;28;20041;-75
2024/01/20 14:26:16;;;;;;;3.55;1.63;;;;;;;;;;5023518;28;20061;-74
2024/01/20 14:28:42;;;;;;;2.72;1.40;;;;;;;;;;5039928;28;20060;-77
2024/01/20 14:31:09;;;;;;;2.00;1.20;;;;;;;;;;5026140;28;20030;-75
2024/01/20 14:33:35;;;;;;;3.58;1.60;;;;;;;;;;5024677;28;20033;-75
2024/01/20 14:36:01;;;;;;;2.65;1.23;;;;;;;;;;5028726;28;20034;-75
2024/01/20 14:38:27;;;;;;;3.42;1.17;;;;;;;;;;5036433;28;20017;-77